Time;durP1;ratioP1;P1;durP2;ratioP2;P2;SDS_P1;SDS_P2;PMS_P1;PMS_P2;Temp;Humidity;BMP_temperature;BMP_pressure;BME280_temperature;BME280_humidity;BME280_pressure;Samples;Min_cycle;Max_cycle;Signal;HPM_P1;HPM_P2
2023/05/04 00:01:36;;;;;;;5.95;3.70;;;;;;;13.86;85.18;101643.22;4768255;29;20038;-89
2023/05/04 00:04:02;;;;;;;6.10;3.72;;;;;;;13.70;85.74;101624.91;4783540;29;20035;-88
2023/05/04 00:06:27;;;;;;;6.57;3.85;;;;;;;13.81;85.07;101634.78;4783035;29;20039;-88
2023/05/04 00:08:53;;;;;;;4.60;3.15;;;;;;;13.86;85.06;101642.38;4768016;29;20420;-90
2023/05/04 00:11:18;;;;;;;7.03;3.75;;;;;;;13.74;85.02;101635.97;4782991;29;20457;-89
2023/05/04 00:13:44;;;;;;;4.50;3.33;;;;;;;13.58;85.38;101606.41;4782264;29;20053;-90
2023/05/04 00:16:09;;;;;;;3.65;2.38;;;;;;;13.68;86.49;101623.28;4782356;29;20091;-89
2023/05/04 00:18:35;;;;;;;3.67;2.13;;;;;;;13.76;86.45;101636.75;4783368;29;20057;-89
2023/05/04 00:21:00;;;;;;;5.55;2.58;;;;;;;13.72;86.10;101628.25;4800334;29;20520;-90
2023/05/04 00:23:26;;;;;;;6.80;2.97;;;;;;;13.80;85.61;101630.50;4787965;29;20497;-89
2023/05/04 00:25:51;;;;;;;6.65;3.55;;;;;;;13.63;85.88;101618.28;4804197;29;20060;-89
2023/05/04 00:28:17;;;;;;;5.57;2.72;;;;;;;13.74;86.38;101636.81;4789469;29;20047;-89
2023/05/04 00:30:42;;;;;;;5.25;2.42;;;;;;;13.72;85.61;101630.84;4774372;29;20038;-89
2023/05/04 00:33:08;;;;;;;7.63;2.67;;;;;;;13.69;85.46;101638.81;4789119;29;20037;-90
2023/05/04 00:35:33;;;;;;;4.60;2.75;;;;;;;13.58;85.00;101611.63;4788976;29;20042;-90
2023/05/04 00:38:01;;;;;;;5.18;2.88;;;;;;;13.66;85.19;101631.13;4803819;29;20086;-89
2023/05/04 00:40:26;;;;;;;4.95;2.83;;;;;;;13.50;84.41;101596.38;4789353;29;20410;-89
2023/05/04 00:42:52;;;;;;;6.05;3.05;;;;;;;13.55;84.28;101616.94;4805254;29;20038;-88
2023/05/04 00:45:18;;;;;;;7.00;3.22;;;;;;;13.69;84.35;101632.78;4789124;29;20517;-89
2023/05/04 00:47:43;;;;;;;5.82;3.00;;;;;;;13.66;84.61;101632.88;4804088;29;20110;-89
2023/05/04 00:50:09;;;;;;;6.43;3.50;;;;;;;13.53;83.94;101626.56;4803859;29;20037;-89
2023/05/04 00:52:35;;;;;;;5.53;3.33;;;;;;;13.59;84.69;101628.91;4788556;29;20030;-89
2023/05/04 00:55:01;;;;;;;5.68;3.75;;;;;;;13.37;84.56;101596.09;4788573;29;20129;-90
2023/05/04 00:57:26;;;;;;;6.90;2.72;;;;;;;13.60;84.35;101628.81;4788621;29;20039;-89
2023/05/04 00:59:52;;;;;;;3.92;2.50;;;;;;;13.54;83.99;101623.06;4788762;29;20042;-91
2023/05/04 01:02:19;;;;;;;4.13;2.42;;;;;;;13.62;84.70;101636.56;4809850;29;20484;-90
2023/05/04 01:04:44;;;;;;;6.35;3.65;;;;;;;13.49;83.72;101636.28;4790788;29;20455;-90
2023/05/04 01:07:10;;;;;;;4.72;3.08;;;;;;;13.44;84.01;101626.06;4801646;29;20038;-89
2023/05/04 01:09:41;;;;;;;4.03;2.78;;;;;;;13.31;83.77;101606.75;4797043;29;20103;-89
2023/05/04 01:12:31;;;;;;;7.75;3.03;;;;;;;13.45;84.32;101630.34;4781417;29;20043;-89
2023/05/04 01:14:56;;;;;;;4.22;2.90;;;;;;;13.34;83.61;101610.94;4782581;29;20099;-89
2023/05/04 01:17:22;;;;;;;7.75;3.17;;;;;;;13.44;83.83;101633.88;4782117;29;20051;-90
2023/05/04 01:19:49;;;;;;;4.97;3.38;;;;;;;13.40;83.46;101621.09;4782011;29;20038;-90
2023/05/04 01:22:15;;;;;;;6.90;3.17;;;;;;;13.45;83.10;101638.16;4796864;29;20035;-90
2023/05/04 01:24:40;;;;;;;3.75;2.80;;;;;;;13.38;83.47;101626.38;4782064;29;20039;-90
2023/05/04 01:27:25;;;;;;;8.75;3.05;;;;;;;13.47;82.90;101643.31;4781398;29;20038;-90
2023/05/04 01:30:01;;;;;;;9.50;2.80;;;;;;;13.35;82.92;101620.44;4768974;29;20054;-89
2023/05/04 01:32:28;;;;;;;5.97;3.45;;;;;;;13.46;83.23;101642.44;4782036;29;20043;-89
2023/05/04 01:34:54;;;;;;;5.22;3.03;;;;;;;13.42;82.63;101630.50;4766733;29;20051;-90
2023/05/04 01:37:19;;;;;;;3.75;2.88;;;;;;;13.28;81.86;101604.28;4782369;29;20035;-91
2023/05/04 01:39:45;;;;;;;3.22;2.15;;;;;;;13.52;81.75;101633.53;4772965;29;20520;-89
2023/05/04 01:42:10;;;;;;;4.70;2.78;;;;;;;13.35;81.50;101603.09;4788046;29;20031;-90
2023/05/04 01:44:36;;;;;;;4.75;2.65;;;;;;;13.37;81.80;101616.88;4788530;29;20037;-90
2023/05/04 01:47:01;;;;;;;5.28;3.22;;;;;;;13.39;82.34;101616.81;4787929;29;20096;-90
2023/05/04 01:49:27;;;;;;;4.65;2.95;;;;;;;13.37;82.17;101621.22;4773207;29;20038;-90
2023/05/04 01:51:52;;;;;;;4.30;2.75;;;;;;;13.18;82.61;101595.19;4788434;29;20039;-89
2023/05/04 01:54:17;;;;;;;4.03;2.33;;;;;;;13.23;82.50;101608.84;4803430;29;20386;-89
2023/05/04 01:56:43;;;;;;;5.20;2.95;;;;;;;13.27;82.13;101615.56;4788203;29;20038;-90
2023/05/04 01:59:08;;;;;;;5.05;2.83;;;;;;;13.20;82.21;101598.59;4788112;29;20035;-90
2023/05/04 02:01:35;;;;;;;5.65;2.80;;;;;;;13.20;82.07;101603.78;4804364;29;20040;-89
2023/05/04 02:04:00;;;;;;;6.13;2.42;;;;;;;13.16;82.09;101597.00;4788274;29;20118;-90
2023/05/04 02:06:26;;;;;;;9.30;2.70;;;;;;;13.25;82.06;101612.19;4788504;29;20121;-89
2023/05/04 02:08:51;;;;;;;9.35;3.05;;;;;;;13.08;81.46;101570.53;4788199;29;20031;-90
2023/05/04 02:11:17;;;;;;;4.65;3.03;;;;;;;13.34;81.37;101601.41;4788187;29;20501;-90
2023/05/04 02:13:42;;;;;;;4.57;3.35;;;;;;;13.20;81.15;101580.41;4788198;29;20057;-91
2023/05/04 02:16:08;;;;;;;5.78;3.10;;;;;;;13.30;81.47;101592.06;4803266;29;20042;-90
2023/05/04 02:18:33;;;;;;;4.35;2.95;;;;;;;13.19;82.16;101582.16;4802928;29;20083;-90
2023/05/04 02:20:59;;;;;;;4.85;3.15;;;;;;;13.22;82.25;101585.53;4787880;29;20041;-90
2023/05/04 02:23:24;;;;;;;9.75;3.40;;;;;;;13.10;81.67;101572.13;4785217;29;20031;-91
2023/05/04 02:25:50;;;;;;;4.43;3.10;;;;;;;13.10;81.62;101579.94;4781746;29;20046;-90
2023/05/04 02:28:16;;;;;;;4.20;2.65;;;;;;;13.14;81.02;101589.25;4781560;29;20035;-90
2023/05/04 02:30:41;;;;;;;4.90;3.22;;;;;;;13.19;81.91;101592.56;4766332;29;20042;-89
2023/05/04 02:33:06;;;;;;;7.03;3.28;;;;;;;12.89;81.83;101560.94;4781392;29;20043;-91
2023/05/04 02:35:32;;;;;;;5.25;3.03;;;;;;;13.08;81.61;101586.97;4781340;29;20548;-89
2023/05/04 02:37:57;;;;;;;5.68;3.20;;;;;;;13.14;81.72;101598.81;4797452;29;20074;-90
2023/05/04 02:40:23;;;;;;;4.30;2.38;;;;;;;13.10;81.99;101597.28;4769886;29;20085;-91
2023/05/04 02:42:48;;;;;;;3.85;2.70;;;;;;;13.14;82.37;101601.41;4800006;29;20035;-90
2023/05/04 02:45:14;;;;;;;7.47;2.80;;;;;;;13.02;82.33;101578.59;4799577;29;20046;-90
2023/05/04 02:47:39;;;;;;;4.80;2.95;;;;;;;13.14;81.79;101609.22;4769676;29;20584;-92
2023/05/04 02:50:05;;;;;;;4.78;2.50;;;;;;;12.96;81.63;101586.63;4770148;29;20035;-90
2023/05/04 02:52:31;;;;;;;3.47;2.75;;;;;;;13.10;81.52;101620.66;4784459;29;20039;-91
2023/05/04 02:54:57;;;;;;;5.10;2.85;;;;;;;13.14;81.42;101624.78;4789329;29;20030;-90
2023/05/04 02:57:22;;;;;;;3.75;2.80;;;;;;;13.13;80.39;101620.50;4805979;29;20030;-87
2023/05/04 02:59:48;;;;;;;4.95;3.00;;;;;;;13.07;80.68;101602.59;4786813;29;20043;-89
2023/05/04 03:02:13;;;;;;;4.70;3.63;;;;;;;12.99;80.11;101594.31;4799197;29;20039;-88
2023/05/04 03:04:39;;;;;;;5.88;3.15;;;;;;;13.19;80.34;101615.09;4799485;29;20087;-89
2023/05/04 03:07:07;;;;;;;5.50;2.92;;;;;;;13.30;80.33;101627.59;4769107;29;20039;-91
2023/05/04 03:09:33;;;;;;;3.97;2.92;;;;;;;13.19;80.32;101617.69;4788929;29;20091;-87
2023/05/04 03:11:58;;;;;;;4.28;2.88;;;;;;;13.32;79.99;101637.00;4805049;29;20043;-88
2023/05/04 03:14:24;;;;;;;4.55;2.90;;;;;;;13.18;80.44;101624.63;4819756;29;20046;-86
2023/05/04 03:16:49;;;;;;;5.53;3.10;;;;;;;13.22;80.19;101632.28;4804948;29;20042;-85
2023/05/04 03:19:17;;;;;;;4.53;3.10;;;;;;;13.27;80.27;101638.13;4805209;29;20030;-87
2023/05/04 03:21:44;;;;;;;3.63;2.50;;;;;;;13.13;80.37;101633.50;4804983;29;20117;-86
2023/05/04 03:24:10;;;;;;;4.57;2.50;;;;;;;13.17;80.40;101632.44;4805107;29;20039;-86
2023/05/04 03:26:36;;;;;;;6.22;3.28;;;;;;;13.18;80.61;101634.16;4804588;29;20046;-85
2023/05/04 03:29:01;;;;;;;5.32;3.40;;;;;;;13.11;80.82;101630.13;4789881;29;20126;-86
2023/05/04 03:31:26;;;;;;;7.07;3.63;;;;;;;12.78;81.15;101578.75;4803831;29;20439;-87
2023/05/04 03:33:52;;;;;;;6.07;3.00;;;;;;;13.06;80.28;101621.69;4804728;29;20130;-88
2023/05/04 03:36:17;;;;;;;6.10;3.30;;;;;;;13.10;80.01;101646.63;4805042;29;20386;-88
2023/05/04 03:38:43;;;;;;;4.38;2.85;;;;;;;13.09;80.83;101648.41;4789206;29;20553;-88
2023/05/04 03:41:09;;;;;;;5.55;2.95;;;;;;;13.11;81.54;101659.56;4803850;29;20517;-88
2023/05/04 03:43:35;;;;;;;7.60;3.15;;;;;;;12.96;81.99;101633.38;4804587;29;20493;-88
2023/05/04 03:46:00;;;;;;;17.48;10.05;;;;;;;13.04;82.34;101659.88;4804486;29;20042;-88
2023/05/04 03:48:25;;;;;;;14.18;9.82;;;;;;;12.89;82.26;101651.00;4804896;29;20030;-88
2023/05/04 03:50:51;;;;;;;6.07;4.30;;;;;;;12.93;82.71;101652.53;4789684;29;20038;-89
2023/05/04 03:53:16;;;;;;;5.60;3.25;;;;;;;13.03;82.89;101666.81;4804651;29;20042;-90
2023/05/04 03:55:42;;;;;;;6.93;4.25;;;;;;;13.02;82.73;101666.91;4804749;29;20509;-90
2023/05/04 03:58:07;;;;;;;6.88;4.60;;;;;;;12.91;82.67;101652.63;4804612;29;20474;-88
2023/05/04 04:00:33;;;;;;;10.32;5.13;;;;;;;12.96;82.63;101661.94;4805666;29;20039;-89
2023/05/04 04:02:58;;;;;;;8.30;4.18;;;;;;;12.80;82.17;101641.84;4819046;29;20053;-89
2023/05/04 04:05:24;;;;;;;4.53;3.40;;;;;;;12.89;81.95;101651.84;4804071;29;20042;-90
2023/05/04 04:07:49;;;;;;;4.95;3.55;;;;;;;12.96;82.21;101659.34;4804504;29;20035;-91
2023/05/04 04:10:15;;;;;;;6.75;4.25;;;;;;;13.00;81.64;101679.13;4804238;29;20114;-89
2023/05/04 04:12:40;;;;;;;5.85;3.95;;;;;;;13.05;81.86;101682.34;4804804;29;20097;-92
2023/05/04 04:15:06;;;;;;;7.85;3.78;;;;;;;12.86;82.01;101662.34;4795634;29;20031;-91
2023/05/04 04:17:32;;;;;;;4.30;3.33;;;;;;;12.97;82.41;101700.00;4803765;29;20501;-91
2023/05/04 04:19:57;;;;;;;4.68;3.53;;;;;;;12.99;82.40;101687.81;4785364;29;20039;-84
2023/05/04 04:22:22;;;;;;;5.95;4.00;;;;;;;12.84;82.86;101679.75;4810266;29;20061;-84
2023/05/04 04:24:48;;;;;;;9.02;3.53;;;;;;;12.82;82.58;101665.97;4806975;29;20035;-85
2023/05/04 04:27:13;;;;;;;6.88;4.20;;;;;;;13.04;82.98;101702.28;4803448;29;20046;-82
2023/05/04 04:29:39;;;;;;;7.70;4.50;;;;;;;12.87;82.61;101682.19;4790888;29;20043;-90
2023/05/04 04:32:05;;;;;;;9.40;3.75;;;;;;;12.79;82.08;101671.31;4805058;29;20095;-88
2023/05/04 04:34:30;;;;;;;6.72;4.10;;;;;;;12.96;82.02;101693.13;4802047;29;20403;-81
2023/05/04 04:36:56;;;;;;;6.07;3.83;;;;;;;13.01;81.75;101704.19;4792951;29;20089;-84
2023/05/04 04:39:22;;;;;;;8.95;4.22;;;;;;;13.06;81.99;101715.19;4804206;29;20034;-86
2023/05/04 04:41:48;;;;;;;6.80;4.03;;;;;;;13.10;81.47;101721.97;4805241;29;20130;-88
2023/05/04 04:44:13;;;;;;;13.57;8.73;;;;;;;13.13;81.13;101706.25;4804952;29;20038;-94
2023/05/04 04:46:40;;;;;;;7.60;4.88;;;;;;;13.10;80.73;101707.22;4808381;29;20055;-92
2023/05/04 04:49:06;;;;;;;7.18;4.03;;;;;;;13.18;80.32;101717.31;4804691;29;20071;-88
2023/05/04 04:51:31;;;;;;;6.38;3.13;;;;;;;13.16;79.76;101711.31;4789996;29;20043;-90
2023/05/04 04:53:57;;;;;;;10.57;4.07;;;;;;;13.12;79.26;101712.34;4787645;29;20035;-91
2023/05/04 04:56:22;;;;;;;5.20;3.97;;;;;;;13.04;79.32;101696.25;4802046;29;20474;-94
2023/05/04 04:58:48;;;;;;;4.43;3.38;;;;;;;13.32;79.23;101737.53;4812035;29;20473;-83
2023/05/04 05:01:17;;;;;;;6.55;4.00;;;;;;;13.36;78.63;101741.69;4817749;29;20061;-88
2023/05/04 05:03:46;;;;;;;6.65;3.90;;;;;;;13.07;78.31;101711.69;4821299;29;20026;-90
2023/05/04 05:06:12;;;;;;;6.65;4.65;;;;;;;13.36;78.11;101745.13;4795967;29;20482;-86
2023/05/04 05:08:38;;;;;;;7.30;4.47;;;;;;;13.33;78.22;101747.84;4803037;29;20023;-93
2023/05/04 05:11:04;;;;;;;5.32;3.40;;;;;;;13.34;78.38;101756.50;4796602;29;20483;-85
2023/05/04 05:13:30;;;;;;;4.88;3.55;;;;;;;13.22;78.74;101737.06;4807780;29;20497;-87
2023/05/04 05:15:55;;;;;;;6.18;4.15;;;;;;;13.09;78.79;101709.91;4807971;29;20039;-86
2023/05/04 05:18:21;;;;;;;8.80;5.65;;;;;;;13.32;78.57;101740.13;4803251;29;20038;-88
2023/05/04 05:20:47;;;;;;;12.27;8.52;;;;;;;13.36;77.25;101739.91;4802976;29;20042;-92
2023/05/04 05:23:12;;;;;;;5.43;3.83;;;;;;;13.42;77.27;101746.63;4807787;29;20594;-88
2023/05/04 05:25:38;;;;;;;6.88;4.00;;;;;;;13.43;77.44;101735.31;4799706;29;20035;-88
2023/05/04 05:28:03;;;;;;;5.85;4.10;;;;;;;13.23;76.70;101717.97;4798834;29;20472;-87
2023/05/04 05:30:29;;;;;;;5.57;4.20;;;;;;;13.45;77.11;101752.53;4802144;29;20042;-83
2023/05/04 05:32:55;;;;;;;11.40;5.40;;;;;;;13.42;75.61;101750.06;4816450;29;20414;-93
2023/05/04 05:35:20;;;;;;;9.18;4.47;;;;;;;13.37;75.45;101740.75;4787206;29;20035;-85
2023/05/04 05:37:47;;;;;;;6.97;4.40;;;;;;;13.41;74.41;101748.38;4786669;29;20050;-85
2023/05/04 05:40:14;;;;;;;7.50;3.80;;;;;;;13.53;73.74;101756.56;4801776;29;20162;-83
2023/05/04 05:42:41;;;;;;;4.68;3.30;;;;;;;13.57;73.50;101758.97;4796044;29;20077;-91
2023/05/04 05:45:09;;;;;;;9.95;4.07;;;;;;;13.53;73.97;101751.34;4801548;29;20039;-85
2023/05/04 05:47:35;;;;;;;4.85;3.50;;;;;;;13.44;72.88;101743.03;4803385;29;20035;-87
2023/05/04 05:50:01;;;;;;;7.05;3.88;;;;;;;13.57;72.86;101764.19;4804039;29;20038;-87
2023/05/04 05:52:27;;;;;;;4.28;3.45;;;;;;;13.52;73.34;101757.47;4803029;29;20131;-87
2023/05/04 05:54:52;;;;;;;47.83;29.65;;;;;;;13.67;73.11;101775.88;4787128;29;20039;-83
2023/05/04 05:57:19;;;;;;;8.27;5.50;;;;;;;13.66;73.04;101768.09;4803180;29;20054;-83
2023/05/04 05:59:45;;;;;;;6.63;3.70;;;;;;;13.67;71.35;101772.41;4805902;29;20098;-88
2023/05/04 06:02:13;;;;;;;5.28;3.28;;;;;;;13.63;72.29;101763.03;4811259;29;20110;-90
2023/05/04 06:04:42;;;;;;;5.43;3.45;;;;;;;13.84;72.46;101777.69;4786737;29;20039;-86
2023/05/04 06:07:07;;;;;;;6.13;3.72;;;;;;;13.75;72.72;101775.50;4798715;29;20042;-87
2023/05/04 06:09:33;;;;;;;6.30;2.97;;;;;;;13.85;71.20;101779.38;4798085;29;20063;-85
2023/05/04 06:11:59;;;;;;;4.07;2.92;;;;;;;13.60;71.93;101764.03;4796342;29;20035;-84
2023/05/04 06:14:24;;;;;;;8.40;3.25;;;;;;;13.70;70.17;101785.28;4805116;29;20039;-86
2023/05/04 06:16:50;;;;;;;7.18;4.38;;;;;;;13.68;70.70;101772.34;4806004;29;20491;-89
2023/05/04 06:19:16;;;;;;;5.40;3.60;;;;;;;13.70;70.44;101786.13;4792172;29;20390;-86
2023/05/04 06:21:41;;;;;;;8.73;3.67;;;;;;;13.60;70.57;101784.00;4813307;29;20042;-89
2023/05/04 06:24:06;;;;;;;13.20;6.97;;;;;;;13.61;70.94;101789.13;4804500;29;20520;-90
2023/05/04 06:26:32;;;;;;;20.63;9.90;;;;;;;13.55;71.19;101776.38;4804955;29;20057;-88
2023/05/04 06:28:57;;;;;;;75.57;39.90;;;;;;;13.67;71.12;101785.41;4804190;29;20099;-91
2023/05/04 06:31:23;;;;;;;11.63;6.63;;;;;;;13.68;71.18;101781.91;4805008;29;20035;-89
2023/05/04 06:33:49;;;;;;;5.40;3.42;;;;;;;13.59;70.84;101764.09;4807734;29;20046;-89
2023/05/04 06:36:15;;;;;;;5.78;3.03;;;;;;;13.67;71.54;101796.66;4809547;29;20072;-91
2023/05/04 06:38:40;;;;;;;5.90;3.67;;;;;;;13.73;71.43;101796.38;4803302;29;20027;-91
2023/05/04 06:41:06;;;;;;;4.38;3.17;;;;;;;13.56;71.57;101769.41;4796775;29;20063;-85
2023/05/04 06:43:31;;;;;;;8.00;5.28;;;;;;;13.78;72.21;101802.25;4804872;29;20451;-89
2023/05/04 06:46:03;;;;;;;6.28;4.10;;;;;;;13.58;71.45;101778.03;4813589;29;20066;-84
2023/05/04 06:48:29;;;;;;;6.93;4.68;;;;;;;13.72;71.41;101786.88;4807153;29;20042;-91
2023/05/04 06:50:55;;;;;;;7.00;4.05;;;;;;;13.81;71.88;101803.00;4790115;29;20463;-84
2023/05/04 06:53:21;;;;;;;6.30;3.92;;;;;;;13.64;71.90;101793.34;4802038;29;20030;-91
2023/05/04 06:55:46;;;;;;;11.35;4.13;;;;;;;13.65;71.38;101784.63;4803883;29;20421;-84
2023/05/04 06:58:11;;;;;;;6.88;3.70;;;;;;;13.62;71.10;101798.59;4792525;29;20042;-92
2023/05/04 07:00:37;;;;;;;7.25;4.28;;;;;;;13.53;71.60;101787.75;4810948;29;20090;-86
2023/05/04 07:03:03;;;;;;;5.40;3.47;;;;;;;13.27;71.99;101748.09;4789610;29;20512;-86
2023/05/04 07:05:28;;;;;;;6.53;3.90;;;;;;;13.57;73.07;101794.50;4804117;29;20780;-83
2023/05/04 07:07:53;;;;;;;9.68;5.97;;;;;;;13.70;72.37;101799.13;4798389;29;20039;-91
2023/05/04 07:10:19;;;;;;;37.10;22.92;;;;;;;13.78;72.51;101794.44;4777278;29;20043;-88
2023/05/04 07:12:44;;;;;;;146.82;69.35;;;;;;;13.81;72.65;101803.84;4805349;29;20031;-81
2023/05/04 07:15:10;;;;;;;11.85;6.75;;;;;;;13.83;73.12;101804.63;4805412;29;20470;-83
2023/05/04 07:17:36;;;;;;;6.38;3.88;;;;;;;13.78;74.07;101780.59;4789915;29;20061;-85
2023/05/04 07:20:03;;;;;;;17.00;7.47;;;;;;;13.69;74.70;101774.03;4803050;29;20030;-88
2023/05/04 07:22:30;;;;;;;7.22;4.53;;;;;;;13.83;75.31;101790.78;4803525;29;20489;-93
2023/05/04 07:24:56;;;;;;;6.82;4.65;;;;;;;13.84;75.27;101800.28;4804272;29;20485;-91
2023/05/04 07:27:22;;;;;;;8.98;4.97;;;;;;;13.88;76.71;101802.69;4794217;29;20126;-86
2023/05/04 07:29:50;;;;;;;11.85;6.40;;;;;;;13.84;77.73;101792.47;4798082;29;20039;-95
2023/05/04 07:32:16;;;;;;;10.23;5.43;;;;;;;13.76;78.29;101766.78;4774603;29;20038;-87
2023/05/04 07:34:42;;;;;;;6.18;4.10;;;;;;;13.93;77.90;101792.91;4804354;29;20033;-83
2023/05/04 07:37:08;;;;;;;6.30;4.45;;;;;;;13.81;78.25;101777.84;4804103;29;20034;-82
2023/05/04 07:39:35;;;;;;;8.02;5.03;;;;;;;13.93;78.56;101794.66;4818502;29;20720;-88
2023/05/04 07:42:26;;;;;;;7.05;4.38;;;;;;;13.91;77.07;101805.16;4775575;29;20027;-94
2023/05/04 07:44:52;;;;;;;6.25;4.07;;;;;;;13.77;78.24;101789.31;4789042;29;20080;-84
2023/05/04 07:47:17;;;;;;;6.00;3.63;;;;;;;13.78;77.66;101804.00;4811340;29;20035;-86
2023/05/04 07:49:43;;;;;;;7.78;4.40;;;;;;;13.75;77.72;101804.09;4802959;29;20092;-88
2023/05/04 07:52:08;;;;;;;6.40;3.92;;;;;;;13.67;79.59;101781.06;4805057;29;20031;-85
2023/05/04 07:54:33;;;;;;;14.93;5.57;;;;;;;13.86;77.92;101808.84;4801304;29;20035;-83
2023/05/04 07:57:02;;;;;;;7.63;3.92;;;;;;;13.90;79.31;101806.06;4803189;29;20035;-88
2023/05/04 07:59:29;;;;;;;9.88;5.53;;;;;;;13.81;79.56;101783.06;4804670;29;21080;-90
2023/05/04 08:01:54;;;;;;;14.80;5.30;;;;;;;13.90;79.27;101781.81;4789795;29;20427;-86
2023/05/04 08:04:20;;;;;;;9.98;6.60;;;;;;;14.01;78.85;101811.63;4798498;29;20438;-92
2023/05/04 08:06:45;;;;;;;6.55;3.80;;;;;;;13.81;77.31;101767.44;4799014;29;20037;-87
2023/05/04 08:09:11;;;;;;;12.27;5.15;;;;;;;14.05;76.79;101802.75;4807663;29;20554;-88
2023/05/04 08:11:38;;;;;;;9.38;4.55;;;;;;;14.04;77.32;101802.84;4801943;29;20039;-86
2023/05/04 08:14:04;;;;;;;8.10;4.53;;;;;;;14.13;75.68;101825.84;4787993;29;20521;-88
2023/05/04 08:16:29;;;;;;;7.53;4.38;;;;;;;14.02;75.32;101813.31;4800428;29;20042;-89
2023/05/04 08:18:56;;;;;;;6.93;4.20;;;;;;;14.03;77.62;101825.41;4804161;29;20035;-89
2023/05/04 08:21:21;;;;;;;8.38;5.30;;;;;;;13.99;76.75;101823.88;4802616;29;20039;-93
2023/05/04 08:23:47;;;;;;;7.85;4.57;;;;;;;13.97;75.88;101825.69;4803344;29;20046;-89
2023/05/04 08:26:13;;;;;;;8.98;4.57;;;;;;;13.98;76.35;101823.94;4802866;29;20039;-92
2023/05/04 08:28:38;;;;;;;8.90;4.35;;;;;;;14.01;77.05;101826.41;4786329;29;20483;-85
2023/05/04 08:31:05;;;;;;;15.98;5.97;;;;;;;13.97;76.64;101827.47;4788417;29;20102;-85
2023/05/04 08:33:31;;;;;;;16.90;4.97;;;;;;;13.78;76.19;101785.78;4814167;29;20030;-83
2023/05/04 08:35:56;;;;;;;7.30;4.30;;;;;;;14.03;76.24;101817.59;4802963;29;20043;-93
2023/05/04 08:38:22;;;;;;;5.43;2.67;;;;;;;13.63;74.34;101765.66;4788178;29;20031;-84
2023/05/04 08:40:47;;;;;;;5.78;3.45;;;;;;;13.89;74.75;101817.38;4796917;29;20050;-92
2023/05/04 08:43:12;;;;;;;6.40;4.20;;;;;;;13.83;74.83;101791.63;4785214;29;20038;-90
2023/05/04 08:45:38;;;;;;;6.00;4.10;;;;;;;14.06;74.61;101814.88;4798770;29;20047;-91
2023/05/04 08:48:07;;;;;;;7.18;3.75;;;;;;;14.01;73.83;101803.81;4795656;29;20623;-84
2023/05/04 08:50:33;;;;;;;7.88;6.35;;;;;;;14.04;73.25;101814.09;4800378;29;20038;-88
2023/05/04 08:53:01;;;;;;;7.72;4.90;;;;;;;13.94;73.82;101807.59;4786464;29;20042;-88
2023/05/04 08:55:28;;;;;;;6.45;4.30;;;;;;;14.17;73.42;101827.41;4787917;29;20034;-87
2023/05/04 08:57:53;;;;;;;5.85;4.15;;;;;;;14.21;72.82;101822.91;4793859;29;20497;-84
2023/05/04 09:00:19;;;;;;;17.15;5.70;;;;;;;14.19;72.00;101824.72;4794858;29;20055;-85
2023/05/04 09:02:44;;;;;;;7.63;4.25;;;;;;;14.06;72.69;101808.84;4785125;29;20536;-85
2023/05/04 09:05:10;;;;;;;7.38;4.20;;;;;;;14.07;73.21;101819.16;4800269;29;20038;-82
2023/05/04 09:07:35;;;;;;;7.05;4.03;;;;;;;14.00;73.67;101819.50;4793307;29;20034;-88
2023/05/04 09:10:02;;;;;;;6.70;4.53;;;;;;;13.96;73.20;101808.41;4769996;29;20042;-85
2023/05/04 09:12:28;;;;;;;7.80;4.47;;;;;;;14.05;73.82;101813.16;4801360;29;20073;-84
2023/05/04 09:14:53;;;;;;;7.07;4.18;;;;;;;14.22;73.08;101827.19;4800831;29;20041;-86
2023/05/04 09:17:24;;;;;;;51.67;24.67;;;;;;;14.14;72.67;101830.13;4802514;29;20047;-85
2023/05/04 09:19:59;;;;;;;15.00;7.47;;;;;;;14.04;73.29;101808.03;4790498;29;20529;-86
2023/05/04 09:22:25;;;;;;;7.00;4.18;;;;;;;14.09;72.32;101802.66;4802262;29;20027;-89
2023/05/04 09:24:50;;;;;;;8.65;3.90;;;;;;;14.21;72.49;101813.34;4798466;29;20168;-85
2023/05/04 09:27:19;;;;;;;7.38;4.15;;;;;;;14.29;73.20;101818.19;4801273;29;20339;-83
2023/05/04 09:29:53;;;;;;;4.72;3.42;;;;;;;14.20;72.66;101810.81;4785274;29;20045;-89
2023/05/04 09:32:19;;;;;;;44.10;24.95;;;;;;;14.20;72.95;101816.84;4818178;29;20030;-89
2023/05/04 09:34:49;;;;;;;15.98;8.52;;;;;;;14.20;73.61;101816.00;4805307;29;20035;-88
2023/05/04 09:37:14;;;;;;;7.43;4.65;;;;;;;14.16;73.97;101791.91;4805840;29;20102;-85
2023/05/04 09:39:58;;;;;;;6.70;4.28;;;;;;;14.48;73.36;101811.28;4821574;29;20512;-88
2023/05/04 09:42:24;;;;;;;6.53;3.50;;;;;;;14.56;72.63;101803.94;4820519;29;20056;-88
2023/05/04 09:45:03;;;;;;;7.40;4.28;;;;;;;14.64;71.41;101812.22;4805711;29;20038;-88
2023/05/04 09:47:32;;;;;;;11.23;3.70;;;;;;;14.70;71.25;101828.50;4820572;29;20523;-91
2023/05/04 09:49:58;;;;;;;7.25;4.20;;;;;;;14.59;70.99;101821.19;4821153;29;20429;-84
2023/05/04 09:52:23;;;;;;;4.57;2.70;;;;;;;14.27;69.98;101781.00;4805453;29;20031;-88
2023/05/04 09:54:48;;;;;;;5.43;3.53;;;;;;;14.23;70.33;101774.22;4805170;29;20401;-85
2023/05/04 09:57:14;;;;;;;6.80;4.22;;;;;;;14.43;71.31;101809.75;4789174;29;20474;-85
2023/05/04 09:59:40;;;;;;;5.78;3.75;;;;;;;14.33;71.60;101811.94;4805166;29;20525;-85
2023/05/04 10:02:06;;;;;;;6.38;4.20;;;;;;;14.40;71.06;101796.88;4810705;29;20039;-85
2023/05/04 10:04:35;;;;;;;22.52;4.15;;;;;;;14.28;69.58;101787.88;4803676;29;20027;-86
2023/05/04 10:07:04;;;;;;;4.72;3.78;;;;;;;14.34;70.36;101808.41;4804032;29;20042;-88
2023/05/04 10:09:30;;;;;;;5.22;3.70;;;;;;;14.37;70.64;101812.66;4802469;29;20572;-88
2023/05/04 10:12:05;;;;;;;9.90;3.92;;;;;;;14.39;70.83;101810.81;4802207;29;20131;-93
2023/05/04 10:14:34;;;;;;;6.35;4.18;;;;;;;14.44;71.85;101801.84;4789908;29;20073;-89
2023/05/04 10:17:32;;;;;;;4.03;3.20;;;;;;;14.53;70.67;101813.66;4801191;29;20641;-84
2023/05/04 10:20:31;;;;;;;5.85;3.78;;;;;;;14.62;70.11;101813.22;4816908;29;20027;-88
2023/05/04 10:23:22;;;;;;;7.78;4.22;;;;;;;14.57;69.92;101816.06;4806381;29;20493;-91
2023/05/04 10:26:06;;;;;;;7.38;4.47;;;;;;;14.52;70.38;101802.38;4799364;29;20516;-82
2023/05/04 10:28:53;;;;;;;7.35;4.30;;;;;;;14.70;70.49;101812.88;4814569;29;20062;-88
2023/05/04 10:31:18;;;;;;;6.30;4.53;;;;;;;14.62;69.94;101810.63;4795961;29;20756;-88
2023/05/04 10:33:44;;;;;;;7.82;4.95;;;;;;;14.74;70.02;101815.25;4779821;29;20066;-87
2023/05/04 10:36:10;;;;;;;10.27;5.45;;;;;;;14.67;70.55;101818.22;4781902;29;20008;-92
2023/05/04 10:38:37;;;;;;;6.75;4.82;;;;;;;14.68;71.44;101812.09;4779962;29;20027;-91
2023/05/04 10:41:16;;;;;;;5.57;4.00;;;;;;;14.69;70.60;101803.38;4778283;29;20514;-85
2023/05/04 10:43:47;;;;;;;5.70;3.75;;;;;;;14.72;70.22;101818.84;4786055;29;20065;-91
2023/05/04 10:46:31;;;;;;;6.05;4.15;;;;;;;14.52;70.70;101802.38;4769282;29;20035;-89
2023/05/04 10:48:56;;;;;;;6.70;3.90;;;;;;;14.72;72.02;101819.69;4786772;29;20035;-86
2023/05/04 10:51:23;;;;;;;6.05;3.88;;;;;;;14.59;72.14;101808.16;4785685;29;20092;-85
2023/05/04 10:53:48;;;;;;;12.77;4.30;;;;;;;14.59;73.45;101814.22;4782879;29;20429;-85
2023/05/04 10:56:24;;;;;;;4.70;3.10;;;;;;;14.58;73.09;101829.91;4789235;29;20064;-84
2023/05/04 10:58:49;;;;;;;5.93;3.28;;;;;;;14.45;72.13;101815.75;4787716;29;20027;-86
2023/05/04 11:01:15;;;;;;;5.90;3.30;;;;;;;14.33;71.42;101804.97;4805426;29;20037;-86
2023/05/04 11:03:41;;;;;;;7.22;3.30;;;;;;;14.27;71.97;101804.41;4804979;29;20042;-90
2023/05/04 11:06:16;;;;;;;5.30;3.47;;;;;;;14.31;72.01;101824.19;4805814;29;20039;-88
2023/05/04 11:08:42;;;;;;;4.25;2.83;;;;;;;14.27;71.95;101818.28;4820803;29;20084;-88
2023/05/04 11:11:07;;;;;;;6.32;3.30;;;;;;;14.25;72.27;101814.88;4790040;29;20058;-82
2023/05/04 11:13:33;;;;;;;4.45;2.95;;;;;;;14.30;71.77;101825.94;4805850;29;20122;-82
2023/05/04 11:15:59;;;;;;;5.53;3.58;;;;;;;14.31;72.30;101826.78;4821963;29;20121;-91
2023/05/04 11:18:28;;;;;;;4.80;3.30;;;;;;;14.37;72.02;101829.13;4799425;29;20045;-86
2023/05/04 11:20:54;;;;;;;4.82;3.22;;;;;;;14.38;71.50;101823.00;4789845;29;20125;-87
2023/05/04 11:23:20;;;;;;;6.07;2.22;;;;;;;14.30;69.46;101799.91;4795188;29;20034;-85